sensor_id;sensor_type;location;lat;lon;timestamp;temperature;humidity
5009;DHT22;2523;51.058;6.922;2023-03-20T00:02:50;9.70;99.90
5009;DHT22;2523;51.058;6.922;2023-03-20T00:05:18;9.70;99.90
5009;DHT22;2523;51.058;6.922;2023-03-20T00:07:46;9.70;99.90
5009;DHT22;2523;51.058;6.922;2023-03-20T00:10:12;9.70;99.90
5009;DHT22;2523;51.058;6.922;2023-03-20T00:12:38;9.70;99.90
5009;DHT22;2523;51.058;6.922;2023-03-20T00:15:07;9.70;99.90
5009;DHT22;2523;51.058;6.922;2023-03-20T00:17:41;9.70;99.90
5009;DHT22;2523;51.058;6.922;2023-03-20T00:20:16;9.80;99.90
5009;DHT22;2523;51.058;6.922;2023-03-20T00:22:42;9.70;99.90
5009;DHT22;2523;51.058;6.922;2023-03-20T00:25:28;9.80;99.90
5009;DHT22;2523;51.058;6.922;2023-03-20T00:27:53;9.70;99.90
5009;DHT22;2523;51.058;6.922;2023-03-20T00:30:26;9.70;99.90
5009;DHT22;2523;51.058;6.922;2023-03-20T00:32:53;9.70;99.90
5009;DHT22;2523;51.058;6.922;2023-03-20T00:35:28;9.70;99.90
5009;DHT22;2523;51.058;6.922;2023-03-20T00:37:55;9.70;99.90
5009;DHT22;2523;51.058;6.922;2023-03-20T00:40:22;9.70;99.90
5009;DHT22;2523;51.058;6.922;2023-03-20T00:42:58;9.70;99.90
5009;DHT22;2523;51.058;6.922;2023-03-20T00:45:25;9.60;99.90
5009;DHT22;2523;51.058;6.922;2023-03-20T00:47:52;9.70;99.90
5009;DHT22;2523;51.058;6.922;2023-03-20T00:50:23;9.70;99.90
5009;DHT22;2523;51.058;6.922;2023-03-20T00:52:50;9.60;99.90
5009;DHT22;2523;51.058;6.922;2023-03-20T00:55:18;9.60;99.90
5009;DHT22;2523;51.058;6.922;2023-03-20T00:57:46;9.70;99.90
5009;DHT22;2523;51.058;6.922;2023-03-20T01:00:23;9.70;99.90
5009;DHT22;2523;51.058;6.922;2023-03-20T01:02:54;9.60;99.90
5009;DHT22;2523;51.058;6.922;2023-03-20T01:05:20;9.70;99.90
5009;DHT22;2523;51.058;6.922;2023-03-20T01:07:46;9.60;99.90
5009;DHT22;2523;51.058;6.922;2023-03-20T01:10:12;9.60;99.90
5009;DHT22;2523;51.058;6.922;2023-03-20T01:12:39;9.60;99.90
5009;DHT22;2523;51.058;6.922;2023-03-20T01:15:21;9.60;99.90
5009;DHT22;2523;51.058;6.922;2023-03-20T01:17:48;9.60;99.90
5009;DHT22;2523;51.058;6.922;2023-03-20T01:20:17;9.60;99.90
5009;DHT22;2523;51.058;6.922;2023-03-20T01:22:43;9.60;99.90
5009;DHT22;2523;51.058;6.922;2023-03-20T01:25:09;9.60;99.90
5009;DHT22;2523;51.058;6.922;2023-03-20T01:27:35;9.60;99.90
5009;DHT22;2523;51.058;6.922;2023-03-20T01:30:01;9.60;99.90
5009;DHT22;2523;51.058;6.922;2023-03-20T01:32:28;9.60;99.90
5009;DHT22;2523;51.058;6.922;2023-03-20T01:34:54;9.50;99.90
5009;DHT22;2523;51.058;6.922;2023-03-20T01:37:26;9.50;99.90
5009;DHT22;2523;51.058;6.922;2023-03-20T01:39:52;9.60;99.90
5009;DHT22;2523;51.058;6.922;2023-03-20T01:42:18;9.60;99.90
5009;DHT22;2523;51.058;6.922;2023-03-20T01:44:44;9.60;99.90
5009;DHT22;2523;51.058;6.922;2023-03-20T01:47:22;9.50;99.90
5009;DHT22;2523;51.058;6.922;2023-03-20T01:52:38;9.50;99.90
5009;DHT22;2523;51.058;6.922;2023-03-20T01:55:04;9.50;99.90
5009;DHT22;2523;51.058;6.922;2023-03-20T01:57:30;9.50;99.90
5009;DHT22;2523;51.058;6.922;2023-03-20T02:00:00;9.50;99.90
5009;DHT22;2523;51.058;6.922;2023-03-20T02:02:29;9.50;99.90
5009;DHT22;2523;51.058;6.922;2023-03-20T02:04:59;9.40;99.90
5009;DHT22;2523;51.058;6.922;2023-03-20T02:07:26;9.40;99.90
5009;DHT22;2523;51.058;6.922;2023-03-20T02:09:52;9.30;99.90
5009;DHT22;2523;51.058;6.922;2023-03-20T02:12:18;9.30;99.90
5009;DHT22;2523;51.058;6.922;2023-03-20T02:14:46;9.30;99.90
5009;DHT22;2523;51.058;6.922;2023-03-20T02:17:12;9.30;99.90
5009;DHT22;2523;51.058;6.922;2023-03-20T02:20:01;9.20;99.90
5009;DHT22;2523;51.058;6.922;2023-03-20T02:25:15;9.30;99.90
5009;DHT22;2523;51.058;6.922;2023-03-20T02:28:04;9.30;99.90
5009;DHT22;2523;51.058;6.922;2023-03-20T02:45:06;9.20;99.90
5009;DHT22;2523;51.058;6.922;2023-03-20T02:47:45;9.30;99.90
5009;DHT22;2523;51.058;6.922;2023-03-20T02:50:28;9.30;99.90
5009;DHT22;2523;51.058;6.922;2023-03-20T02:53:13;9.40;99.90
5009;DHT22;2523;51.058;6.922;2023-03-20T02:55:50;9.30;99.90
5009;DHT22;2523;51.058;6.922;2023-03-20T02:58:25;9.30;99.90
5009;DHT22;2523;51.058;6.922;2023-03-20T03:01:13;9.30;99.90
5009;DHT22;2523;51.058;6.922;2023-03-20T03:06:30;9.40;99.90
5009;DHT22;2523;51.058;6.922;2023-03-20T03:09:17;9.40;99.90
5009;DHT22;2523;51.058;6.922;2023-03-20T03:11:48;9.40;99.90
5009;DHT22;2523;51.058;6.922;2023-03-20T03:14:21;9.40;99.90
5009;DHT22;2523;51.058;6.922;2023-03-20T03:16:50;9.40;99.90
5009;DHT22;2523;51.058;6.922;2023-03-20T03:19:19;9.40;99.90
5009;DHT22;2523;51.058;6.922;2023-03-20T03:21:47;9.40;99.90
5009;DHT22;2523;51.058;6.922;2023-03-20T03:24:44;9.40;99.90
5009;DHT22;2523;51.058;6.922;2023-03-20T03:27:28;9.40;99.90
5009;DHT22;2523;51.058;6.922;2023-03-20T03:30:05;9.40;99.90
5009;DHT22;2523;51.058;6.922;2023-03-20T03:33:13;9.30;99.90
5009;DHT22;2523;51.058;6.922;2023-03-20T03:35:30;9.30;99.90
5009;DHT22;2523;51.058;6.922;2023-03-20T03:40:45;9.30;99.90
5009;DHT22;2523;51.058;6.922;2023-03-20T03:43:30;9.30;99.90
5009;DHT22;2523;51.058;6.922;2023-03-20T03:46:01;9.30;99.90
5009;DHT22;2523;51.058;6.922;2023-03-20T03:48:37;9.30;99.90
5009;DHT22;2523;51.058;6.922;2023-03-20T03:51:08;9.10;99.90
5009;DHT22;2523;51.058;6.922;2023-03-20T03:53:53;9.00;99.90
5009;DHT22;2523;51.058;6.922;2023-03-20T03:56:23;9.10;99.90
5009;DHT22;2523;51.058;6.922;2023-03-20T03:58:54;9.10;99.90
5009;DHT22;2523;51.058;6.922;2023-03-20T04:01:22;9.10;99.90
5009;DHT22;2523;51.058;6.922;2023-03-20T04:03:58;9.10;99.90
5009;DHT22;2523;51.058;6.922;2023-03-20T04:06:27;9.00;99.90
5009;DHT22;2523;51.058;6.922;2023-03-20T04:08:53;9.00;99.90
5009;DHT22;2523;51.058;6.922;2023-03-20T04:11:21;9.00;99.90
5009;DHT22;2523;51.058;6.922;2023-03-20T04:13:49;8.80;99.90
5009;DHT22;2523;51.058;6.922;2023-03-20T04:16:16;8.80;99.90
5009;DHT22;2523;51.058;6.922;2023-03-20T04:18:43;8.90;99.90
5009;DHT22;2523;51.058;6.922;2023-03-20T04:21:09;8.80;99.90
5009;DHT22;2523;51.058;6.922;2023-03-20T04:23:36;8.90;99.90
5009;DHT22;2523;51.058;6.922;2023-03-20T04:26:02;8.90;99.90
5009;DHT22;2523;51.058;6.922;2023-03-20T04:28:28;8.80;99.90
5009;DHT22;2523;51.058;6.922;2023-03-20T04:30:55;8.80;99.90
5009;DHT22;2523;51.058;6.922;2023-03-20T04:33:21;8.80;99.90
5009;DHT22;2523;51.058;6.922;2023-03-20T04:35:47;8.80;99.90
5009;DHT22;2523;51.058;6.922;2023-03-20T04:38:13;8.70;99.90
5009;DHT22;2523;51.058;6.922;2023-03-20T04:40:38;8.70;99.90
5009;DHT22;2523;51.058;6.922;2023-03-20T04:43:04;8.80;99.90
5009;DHT22;2523;51.058;6.922;2023-03-20T04:45:30;8.70;99.90
5009;DHT22;2523;51.058;6.922;2023-03-20T04:47:55;8.70;99.90
5009;DHT22;2523;51.058;6.922;2023-03-20T04:50:21;8.70;99.90
5009;DHT22;2523;51.058;6.922;2023-03-20T04:52:46;8.60;99.90
5009;DHT22;2523;51.058;6.922;2023-03-20T04:55:12;8.60;99.90
5009;DHT22;2523;51.058;6.922;2023-03-20T04:57:38;8.70;99.90
5009;DHT22;2523;51.058;6.922;2023-03-20T05:00:04;8.70;99.90
5009;DHT22;2523;51.058;6.922;2023-03-20T05:02:30;8.60;99.90
5009;DHT22;2523;51.058;6.922;2023-03-20T05:04:55;8.60;99.90
5009;DHT22;2523;51.058;6.922;2023-03-20T05:07:21;8.60;99.90
5009;DHT22;2523;51.058;6.922;2023-03-20T05:09:47;8.60;99.90
5009;DHT22;2523;51.058;6.922;2023-03-20T05:12:12;8.50;99.90
5009;DHT22;2523;51.058;6.922;2023-03-20T05:14:38;8.50;99.90
5009;DHT22;2523;51.058;6.922;2023-03-20T05:17:04;8.40;99.90
5009;DHT22;2523;51.058;6.922;2023-03-20T05:19:29;8.40;99.90
5009;DHT22;2523;51.058;6.922;2023-03-20T05:21:55;8.30;99.90
5009;DHT22;2523;51.058;6.922;2023-03-20T05:24:20;8.30;99.90
5009;DHT22;2523;51.058;6.922;2023-03-20T05:26:46;8.30;99.90
5009;DHT22;2523;51.058;6.922;2023-03-20T05:29:12;8.30;99.90
5009;DHT22;2523;51.058;6.922;2023-03-20T05:31:38;8.20;99.90
5009;DHT22;2523;51.058;6.922;2023-03-20T05:34:03;8.20;99.90
5009;DHT22;2523;51.058;6.922;2023-03-20T05:36:30;8.20;99.90
5009;DHT22;2523;51.058;6.922;2023-03-20T05:38:55;8.20;99.90
5009;DHT22;2523;51.058;6.922;2023-03-20T05:41:21;8.20;99.90
5009;DHT22;2523;51.058;6.922;2023-03-20T05:43:47;8.20;99.90
5009;DHT22;2523;51.058;6.922;2023-03-20T05:46:12;8.20;99.90
5009;DHT22;2523;51.058;6.922;2023-03-20T05:48:38;8.30;99.90
5009;DHT22;2523;51.058;6.922;2023-03-20T05:51:04;8.20;99.90
5009;DHT22;2523;51.058;6.922;2023-03-20T05:53:30;8.20;99.90
5009;DHT22;2523;51.058;6.922;2023-03-20T05:55:55;8.30;99.90
5009;DHT22;2523;51.058;6.922;2023-03-20T05:58:21;8.30;99.90
5009;DHT22;2523;51.058;6.922;2023-03-20T06:00:47;8.30;99.90
5009;DHT22;2523;51.058;6.922;2023-03-20T06:03:12;8.30;99.90
5009;DHT22;2523;51.058;6.922;2023-03-20T06:05:38;8.30;99.90
5009;DHT22;2523;51.058;6.922;2023-03-20T06:08:04;8.30;99.90
5009;DHT22;2523;51.058;6.922;2023-03-20T06:10:30;8.30;99.90
5009;DHT22;2523;51.058;6.922;2023-03-20T06:12:57;8.30;99.90
5009;DHT22;2523;51.058;6.922;2023-03-20T06:15:25;8.30;99.90
5009;DHT22;2523;51.058;6.922;2023-03-20T06:17:51;8.30;99.90
5009;DHT22;2523;51.058;6.922;2023-03-20T06:20:17;8.40;99.90
5009;DHT22;2523;51.058;6.922;2023-03-20T06:22:43;8.40;99.90
5009;DHT22;2523;51.058;6.922;2023-03-20T06:25:09;8.30;99.90
5009;DHT22;2523;51.058;6.922;2023-03-20T06:27:35;8.30;99.90
5009;DHT22;2523;51.058;6.922;2023-03-20T06:30:00;8.30;99.90
5009;DHT22;2523;51.058;6.922;2023-03-20T06:32:26;8.40;99.90
5009;DHT22;2523;51.058;6.922;2023-03-20T06:34:52;8.40;99.90
5009;DHT22;2523;51.058;6.922;2023-03-20T06:37:18;8.50;99.90
5009;DHT22;2523;51.058;6.922;2023-03-20T06:39:45;8.50;99.90
5009;DHT22;2523;51.058;6.922;2023-03-20T06:42:10;8.50;99.90
5009;DHT22;2523;51.058;6.922;2023-03-20T06:44:37;8.40;99.90
5009;DHT22;2523;51.058;6.922;2023-03-20T06:47:03;8.40;99.90
5009;DHT22;2523;51.058;6.922;2023-03-20T06:49:29;8.40;99.90
5009;DHT22;2523;51.058;6.922;2023-03-20T06:51:55;8.40;99.90
5009;DHT22;2523;51.058;6.922;2023-03-20T06:54:20;8.50;99.90
5009;DHT22;2523;51.058;6.922;2023-03-20T06:56:46;8.40;99.90
5009;DHT22;2523;51.058;6.922;2023-03-20T06:59:12;8.40;99.90
5009;DHT22;2523;51.058;6.922;2023-03-20T07:01:38;8.40;99.90
5009;DHT22;2523;51.058;6.922;2023-03-20T07:04:04;8.40;99.90
5009;DHT22;2523;51.058;6.922;2023-03-20T07:06:30;8.50;99.90
5009;DHT22;2523;51.058;6.922;2023-03-20T07:08:56;8.50;99.90
5009;DHT22;2523;51.058;6.922;2023-03-20T07:11:22;8.60;99.90
5009;DHT22;2523;51.058;6.922;2023-03-20T07:13:48;8.60;99.90
5009;DHT22;2523;51.058;6.922;2023-03-20T07:16:13;8.70;99.90
5009;DHT22;2523;51.058;6.922;2023-03-20T07:18:39;8.80;99.90
5009;DHT22;2523;51.058;6.922;2023-03-20T07:21:05;8.90;99.90
5009;DHT22;2523;51.058;6.922;2023-03-20T07:23:33;9.00;99.90
5009;DHT22;2523;51.058;6.922;2023-03-20T07:26:02;9.00;99.90
5009;DHT22;2523;51.058;6.922;2023-03-20T07:28:28;8.90;99.90
5009;DHT22;2523;51.058;6.922;2023-03-20T07:30:53;8.90;99.90
5009;DHT22;2523;51.058;6.922;2023-03-20T07:33:19;8.90;99.90
5009;DHT22;2523;51.058;6.922;2023-03-20T07:35:45;8.90;99.90
5009;DHT22;2523;51.058;6.922;2023-03-20T07:38:11;8.90;99.90
5009;DHT22;2523;51.058;6.922;2023-03-20T07:40:36;8.90;99.90
5009;DHT22;2523;51.058;6.922;2023-03-20T07:43:02;8.90;99.90
5009;DHT22;2523;51.058;6.922;2023-03-20T07:45:29;8.90;99.90
5009;DHT22;2523;51.058;6.922;2023-03-20T07:47:55;8.90;99.90
5009;DHT22;2523;51.058;6.922;2023-03-20T07:50:20;9.00;99.90
5009;DHT22;2523;51.058;6.922;2023-03-20T07:52:47;8.90;99.90
5009;DHT22;2523;51.058;6.922;2023-03-20T07:55:14;9.00;99.90
5009;DHT22;2523;51.058;6.922;2023-03-20T07:57:40;8.90;99.90
5009;DHT22;2523;51.058;6.922;2023-03-20T08:00:06;9.00;99.90
5009;DHT22;2523;51.058;6.922;2023-03-20T08:02:32;8.90;99.90
5009;DHT22;2523;51.058;6.922;2023-03-20T08:04:58;8.90;99.90
5009;DHT22;2523;51.058;6.922;2023-03-20T08:07:24;8.90;99.90
5009;DHT22;2523;51.058;6.922;2023-03-20T08:09:49;8.90;99.90
5009;DHT22;2523;51.058;6.922;2023-03-20T08:12:17;9.00;99.90
5009;DHT22;2523;51.058;6.922;2023-03-20T08:14:42;9.00;33.90
5009;DHT22;2523;51.058;6.922;2023-03-20T08:17:08;9.00;98.40
5009;DHT22;2523;51.058;6.922;2023-03-20T08:19:34;9.10;1.00
5009;DHT22;2523;51.058;6.922;2023-03-20T08:22:00;9.10;1.00
5009;DHT22;2523;51.058;6.922;2023-03-20T08:24:26;9.20;1.00
5009;DHT22;2523;51.058;6.922;2023-03-20T08:26:52;9.20;1.00
5009;DHT22;2523;51.058;6.922;2023-03-20T08:29:17;9.20;30.00
5009;DHT22;2523;51.058;6.922;2023-03-20T08:31:44;9.20;99.90
5009;DHT22;2523;51.058;6.922;2023-03-20T08:34:10;9.20;1.00
5009;DHT22;2523;51.058;6.922;2023-03-20T08:36:35;9.30;99.90
5009;DHT22;2523;51.058;6.922;2023-03-20T08:39:01;9.30;99.90
5009;DHT22;2523;51.058;6.922;2023-03-20T08:41:27;9.40;99.90
5009;DHT22;2523;51.058;6.922;2023-03-20T08:43:52;9.50;99.90
5009;DHT22;2523;51.058;6.922;2023-03-20T08:46:18;9.50;1.00
5009;DHT22;2523;51.058;6.922;2023-03-20T08:48:43;9.50;99.90
5009;DHT22;2523;51.058;6.922;2023-03-20T08:51:09;9.70;1.00
5009;DHT22;2523;51.058;6.922;2023-03-20T08:53:34;9.70;1.00
5009;DHT22;2523;51.058;6.922;2023-03-20T08:56:00;9.60;1.00
5009;DHT22;2523;51.058;6.922;2023-03-20T08:58:26;9.60;1.00
5009;DHT22;2523;51.058;6.922;2023-03-20T09:00:51;9.60;1.00
5009;DHT22;2523;51.058;6.922;2023-03-20T09:03:19;9.50;1.00
5009;DHT22;2523;51.058;6.922;2023-03-20T09:05:47;9.50;1.00
5009;DHT22;2523;51.058;6.922;2023-03-20T09:08:13;9.50;1.00
5009;DHT22;2523;51.058;6.922;2023-03-20T09:10:38;9.60;1.00
5009;DHT22;2523;51.058;6.922;2023-03-20T09:13:05;9.70;1.00
5009;DHT22;2523;51.058;6.922;2023-03-20T09:15:31;9.70;1.00
5009;DHT22;2523;51.058;6.922;2023-03-20T09:17:56;9.70;1.00
5009;DHT22;2523;51.058;6.922;2023-03-20T09:20:22;9.70;1.00
5009;DHT22;2523;51.058;6.922;2023-03-20T09:22:47;9.70;1.00
5009;DHT22;2523;51.058;6.922;2023-03-20T09:25:13;9.70;1.00
5009;DHT22;2523;51.058;6.922;2023-03-20T09:27:39;9.70;1.00
5009;DHT22;2523;51.058;6.922;2023-03-20T09:30:05;9.70;1.00
5009;DHT22;2523;51.058;6.922;2023-03-20T09:32:32;9.70;1.00
5009;DHT22;2523;51.058;6.922;2023-03-20T09:34:59;9.80;1.00
5009;DHT22;2523;51.058;6.922;2023-03-20T09:37:25;9.80;1.00
5009;DHT22;2523;51.058;6.922;2023-03-20T09:39:50;9.70;1.00
5009;DHT22;2523;51.058;6.922;2023-03-20T09:42:35;9.70;1.00
5009;DHT22;2523;51.058;6.922;2023-03-20T09:45:26;9.60;1.00
5009;DHT22;2523;51.058;6.922;2023-03-20T09:48:23;9.50;1.00
5009;DHT22;2523;51.058;6.922;2023-03-20T09:53:36;9.50;1.00
5009;DHT22;2523;51.058;6.922;2023-03-20T09:56:13;9.50;1.00
5009;DHT22;2523;51.058;6.922;2023-03-20T09:58:41;9.60;1.00
5009;DHT22;2523;51.058;6.922;2023-03-20T10:01:12;9.60;1.00
5009;DHT22;2523;51.058;6.922;2023-03-20T10:03:43;9.50;1.00
5009;DHT22;2523;51.058;6.922;2023-03-20T10:06:14;9.50;1.00
5009;DHT22;2523;51.058;6.922;2023-03-20T10:08:41;9.60;1.00
5009;DHT22;2523;51.058;6.922;2023-03-20T10:14:23;9.80;99.90
5009;DHT22;2523;51.058;6.922;2023-03-20T10:17:03;10.00;99.90
5009;DHT22;2523;51.058;6.922;2023-03-20T10:19:56;10.10;99.90
5009;DHT22;2523;51.058;6.922;2023-03-20T10:22:30;10.20;99.90
5009;DHT22;2523;51.058;6.922;2023-03-20T10:25:25;10.20;99.90
5009;DHT22;2523;51.058;6.922;2023-03-20T10:27:57;10.20;99.90
5009;DHT22;2523;51.058;6.922;2023-03-20T10:39:51;10.00;99.90
5009;DHT22;2523;51.058;6.922;2023-03-20T10:42:28;10.00;99.90
5009;DHT22;2523;51.058;6.922;2023-03-20T10:45:07;9.90;99.90
5009;DHT22;2523;51.058;6.922;2023-03-20T10:47:40;9.90;99.90
5009;DHT22;2523;51.058;6.922;2023-03-20T10:50:15;10.00;99.90
5009;DHT22;2523;51.058;6.922;2023-03-20T10:52:42;10.10;99.90
5009;DHT22;2523;51.058;6.922;2023-03-20T10:55:21;10.10;99.90
5009;DHT22;2523;51.058;6.922;2023-03-20T10:58:01;10.10;99.90
5009;DHT22;2523;51.058;6.922;2023-03-20T11:00:27;10.00;99.90
5009;DHT22;2523;51.058;6.922;2023-03-20T11:02:53;10.00;99.90
5009;DHT22;2523;51.058;6.922;2023-03-20T11:07:49;10.00;99.90
5009;DHT22;2523;51.058;6.922;2023-03-20T11:10:16;9.80;99.90
5009;DHT22;2523;51.058;6.922;2023-03-20T11:12:44;9.80;99.90
5009;DHT22;2523;51.058;6.922;2023-03-20T11:15:25;9.80;99.90
5009;DHT22;2523;51.058;6.922;2023-03-20T11:17:55;9.70;99.90
5009;DHT22;2523;51.058;6.922;2023-03-20T11:20:22;9.70;99.90
5009;DHT22;2523;51.058;6.922;2023-03-20T11:22:48;9.70;99.90
5009;DHT22;2523;51.058;6.922;2023-03-20T11:25:37;9.70;99.90
5009;DHT22;2523;51.058;6.922;2023-03-20T11:28:39;9.60;99.90
5009;DHT22;2523;51.058;6.922;2023-03-20T11:31:13;9.70;99.90
5009;DHT22;2523;51.058;6.922;2023-03-20T11:33:45;9.60;99.90
5009;DHT22;2523;51.058;6.922;2023-03-20T11:36:24;9.60;99.90
5009;DHT22;2523;51.058;6.922;2023-03-20T11:38:52;9.50;99.90
5009;DHT22;2523;51.058;6.922;2023-03-20T11:41:27;9.50;99.90
5009;DHT22;2523;51.058;6.922;2023-03-20T11:43:53;9.50;99.90
5009;DHT22;2523;51.058;6.922;2023-03-20T11:46:20;9.50;99.90
5009;DHT22;2523;51.058;6.922;2023-03-20T11:49:01;9.60;1.00
5009;DHT22;2523;51.058;6.922;2023-03-20T11:51:27;9.40;99.90
5009;DHT22;2523;51.058;6.922;2023-03-20T11:53:55;9.30;99.90
5009;DHT22;2523;51.058;6.922;2023-03-20T11:56:27;9.30;1.00
5009;DHT22;2523;51.058;6.922;2023-03-20T11:59:05;9.30;1.00
5009;DHT22;2523;51.058;6.922;2023-03-20T12:01:42;9.30;99.90
5009;DHT22;2523;51.058;6.922;2023-03-20T12:04:28;9.30;1.00
5009;DHT22;2523;51.058;6.922;2023-03-20T12:07:17;9.30;1.00
5009;DHT22;2523;51.058;6.922;2023-03-20T12:12:36;9.50;1.00
5009;DHT22;2523;51.058;6.922;2023-03-20T12:15:23;9.60;1.00
5009;DHT22;2523;51.058;6.922;2023-03-20T12:17:54;9.60;1.00
5009;DHT22;2523;51.058;6.922;2023-03-20T12:31:25;9.50;1.00
5009;DHT22;2523;51.058;6.922;2023-03-20T12:34:04;9.40;1.00
5009;DHT22;2523;51.058;6.922;2023-03-20T12:36:33;9.20;1.00
5009;DHT22;2523;51.058;6.922;2023-03-20T12:39:05;9.20;1.00
5009;DHT22;2523;51.058;6.922;2023-03-20T12:41:39;9.20;1.00
5009;DHT22;2523;51.058;6.922;2023-03-20T12:55:46;9.40;1.00
5009;DHT22;2523;51.058;6.922;2023-03-20T13:00:59;9.70;1.00
5009;DHT22;2523;51.058;6.922;2023-03-20T13:03:53;9.80;1.00
5009;DHT22;2523;51.058;6.922;2023-03-20T13:12:47;9.90;1.00
5009;DHT22;2523;51.058;6.922;2023-03-20T13:15:33;10.00;99.90
5009;DHT22;2523;51.058;6.922;2023-03-20T13:18:01;9.90;99.90
5009;DHT22;2523;51.058;6.922;2023-03-20T13:20:51;9.90;1.00
5009;DHT22;2523;51.058;6.922;2023-03-20T13:28:46;10.00;99.90
5009;DHT22;2523;51.058;6.922;2023-03-20T13:39:27;10.10;1.00
5009;DHT22;2523;51.058;6.922;2023-03-20T13:41:56;10.10;99.90
5009;DHT22;2523;51.058;6.922;2023-03-20T13:44:26;10.10;99.90
5009;DHT22;2523;51.058;6.922;2023-03-20T13:46:55;10.10;99.90
5009;DHT22;2523;51.058;6.922;2023-03-20T13:49:24;10.10;99.90
5009;DHT22;2523;51.058;6.922;2023-03-20T13:52:53;10.30;1.00
5009;DHT22;2523;51.058;6.922;2023-03-20T13:55:19;10.40;1.00
5009;DHT22;2523;51.058;6.922;2023-03-20T14:00:55;10.30;1.00
5009;DHT22;2523;51.058;6.922;2023-03-20T14:03:30;10.40;1.00
5009;DHT22;2523;51.058;6.922;2023-03-20T14:05:57;10.40;99.90
5009;DHT22;2523;51.058;6.922;2023-03-20T14:11:24;10.40;99.90
5009;DHT22;2523;51.058;6.922;2023-03-20T14:14:17;10.50;99.90
5009;DHT22;2523;51.058;6.922;2023-03-20T14:16:44;10.60;1.00
5009;DHT22;2523;51.058;6.922;2023-03-20T14:19:17;10.60;1.00
5009;DHT22;2523;51.058;6.922;2023-03-20T14:21:48;10.70;99.90
5009;DHT22;2523;51.058;6.922;2023-03-20T14:24:17;10.70;1.00
5009;DHT22;2523;51.058;6.922;2023-03-20T14:26:48;10.70;99.90
5009;DHT22;2523;51.058;6.922;2023-03-20T14:31:40;10.60;99.90
5009;DHT22;2523;51.058;6.922;2023-03-20T14:34:21;10.60;99.90
5009;DHT22;2523;51.058;6.922;2023-03-20T14:47:41;10.80;99.90
5009;DHT22;2523;51.058;6.922;2023-03-20T14:53:15;10.70;99.90
5009;DHT22;2523;51.058;6.922;2023-03-20T14:55:57;10.70;99.90
5009;DHT22;2523;51.058;6.922;2023-03-20T15:01:06;10.70;99.90
5009;DHT22;2523;51.058;6.922;2023-03-20T15:03:33;10.70;1.00
5009;DHT22;2523;51.058;6.922;2023-03-20T15:06:03;10.60;99.90
5009;DHT22;2523;51.058;6.922;2023-03-20T15:08:32;10.60;1.00
5009;DHT22;2523;51.058;6.922;2023-03-20T15:11:04;10.60;1.00
5009;DHT22;2523;51.058;6.922;2023-03-20T15:13:33;10.60;1.00
5009;DHT22;2523;51.058;6.922;2023-03-20T15:16:08;10.60;1.00
5009;DHT22;2523;51.058;6.922;2023-03-20T15:18:50;10.60;1.00
5009;DHT22;2523;51.058;6.922;2023-03-20T15:21:27;10.60;1.00
5009;DHT22;2523;51.058;6.922;2023-03-20T15:23:56;10.60;1.00
5009;DHT22;2523;51.058;6.922;2023-03-20T15:26:22;10.60;1.00
5009;DHT22;2523;51.058;6.922;2023-03-20T15:28:54;10.60;1.00
5009;DHT22;2523;51.058;6.922;2023-03-20T15:31:27;10.60;1.00
5009;DHT22;2523;51.058;6.922;2023-03-20T15:33:54;10.70;1.00
5009;DHT22;2523;51.058;6.922;2023-03-20T15:36:24;10.60;1.00
5009;DHT22;2523;51.058;6.922;2023-03-20T15:38:50;10.60;99.90
5009;DHT22;2523;51.058;6.922;2023-03-20T15:41:29;10.60;1.00
5009;DHT22;2523;51.058;6.922;2023-03-20T15:44:17;10.60;1.00
5009;DHT22;2523;51.058;6.922;2023-03-20T15:49:23;10.60;1.00
5009;DHT22;2523;51.058;6.922;2023-03-20T15:51:50;10.60;1.00
5009;DHT22;2523;51.058;6.922;2023-03-20T15:54:17;10.60;1.00
5009;DHT22;2523;51.058;6.922;2023-03-20T15:56:44;10.60;1.00
5009;DHT22;2523;51.058;6.922;2023-03-20T15:59:16;10.60;1.00
5009;DHT22;2523;51.058;6.922;2023-03-20T16:01:43;10.60;1.00
5009;DHT22;2523;51.058;6.922;2023-03-20T16:04:13;10.70;1.00
5009;DHT22;2523;51.058;6.922;2023-03-20T16:07:00;10.70;1.00
5009;DHT22;2523;51.058;6.922;2023-03-20T16:09:26;10.70;1.00
5009;DHT22;2523;51.058;6.922;2023-03-20T16:12:01;10.70;1.00
5009;DHT22;2523;51.058;6.922;2023-03-20T16:14:30;10.80;99.90
5009;DHT22;2523;51.058;6.922;2023-03-20T16:16:58;10.80;99.90
5009;DHT22;2523;51.058;6.922;2023-03-20T16:19:25;10.70;99.90
5009;DHT22;2523;51.058;6.922;2023-03-20T16:22:27;10.70;99.90
5009;DHT22;2523;51.058;6.922;2023-03-20T16:24:56;10.70;99.90
5009;DHT22;2523;51.058;6.922;2023-03-20T16:27:30;10.60;99.90
5009;DHT22;2523;51.058;6.922;2023-03-20T16:29:56;10.60;99.90
5009;DHT22;2523;51.058;6.922;2023-03-20T16:32:32;10.60;99.90
5009;DHT22;2523;51.058;6.922;2023-03-20T16:35:00;10.70;99.90
5009;DHT22;2523;51.058;6.922;2023-03-20T16:37:35;10.70;99.90
5009;DHT22;2523;51.058;6.922;2023-03-20T16:40:14;10.70;1.00
5009;DHT22;2523;51.058;6.922;2023-03-20T16:42:41;10.70;1.00
5009;DHT22;2523;51.058;6.922;2023-03-20T16:45:28;10.70;1.00
5009;DHT22;2523;51.058;6.922;2023-03-20T16:50:38;10.70;1.00
5009;DHT22;2523;51.058;6.922;2023-03-20T16:53:10;10.70;1.00
5009;DHT22;2523;51.058;6.922;2023-03-20T16:55:41;10.70;99.90
5009;DHT22;2523;51.058;6.922;2023-03-20T16:58:08;10.70;99.90
5009;DHT22;2523;51.058;6.922;2023-03-20T17:00:51;10.60;99.90
5009;DHT22;2523;51.058;6.922;2023-03-20T17:03:19;10.70;99.90
5009;DHT22;2523;51.058;6.922;2023-03-20T17:05:54;10.70;99.90
5009;DHT22;2523;51.058;6.922;2023-03-20T17:08:36;10.70;99.90
5009;DHT22;2523;51.058;6.922;2023-03-20T17:11:11;10.70;99.90
5009;DHT22;2523;51.058;6.922;2023-03-20T17:13:38;10.70;99.90
5009;DHT22;2523;51.058;6.922;2023-03-20T17:16:04;10.70;99.90
5009;DHT22;2523;51.058;6.922;2023-03-20T17:18:29;10.60;99.90
5009;DHT22;2523;51.058;6.922;2023-03-20T17:20:55;10.60;99.90
5009;DHT22;2523;51.058;6.922;2023-03-20T17:23:21;10.60;1.00
5009;DHT22;2523;51.058;6.922;2023-03-20T17:25:48;10.60;99.90
5009;DHT22;2523;51.058;6.922;2023-03-20T17:28:20;10.60;99.90
5009;DHT22;2523;51.058;6.922;2023-03-20T17:30:47;10.60;1.00
5009;DHT22;2523;51.058;6.922;2023-03-20T17:33:14;10.60;1.00
5009;DHT22;2523;51.058;6.922;2023-03-20T17:35:40;10.60;1.00
5009;DHT22;2523;51.058;6.922;2023-03-20T17:38:16;10.60;1.00
5009;DHT22;2523;51.058;6.922;2023-03-20T17:40:43;10.60;1.00
5009;DHT22;2523;51.058;6.922;2023-03-20T17:43:11;10.60;1.00
5009;DHT22;2523;51.058;6.922;2023-03-20T17:45:36;10.60;1.00
5009;DHT22;2523;51.058;6.922;2023-03-20T17:48:03;10.60;99.90
5009;DHT22;2523;51.058;6.922;2023-03-20T17:50:29;10.60;1.00
5009;DHT22;2523;51.058;6.922;2023-03-20T17:52:54;10.60;1.00
5009;DHT22;2523;51.058;6.922;2023-03-20T17:55:20;10.50;99.90
5009;DHT22;2523;51.058;6.922;2023-03-20T17:57:45;10.50;99.90
5009;DHT22;2523;51.058;6.922;2023-03-20T18:00:23;10.50;99.90
5009;DHT22;2523;51.058;6.922;2023-03-20T18:02:49;10.40;1.00
5009;DHT22;2523;51.058;6.922;2023-03-20T18:05:15;10.40;1.00
5009;DHT22;2523;51.058;6.922;2023-03-20T18:07:41;10.40;1.00
5009;DHT22;2523;51.058;6.922;2023-03-20T18:10:18;10.40;1.00
5009;DHT22;2523;51.058;6.922;2023-03-20T18:12:45;10.40;1.00
5009;DHT22;2523;51.058;6.922;2023-03-20T18:15:10;10.40;99.90
5009;DHT22;2523;51.058;6.922;2023-03-20T18:17:36;10.40;99.90
5009;DHT22;2523;51.058;6.922;2023-03-20T18:20:02;10.40;99.90
5009;DHT22;2523;51.058;6.922;2023-03-20T18:22:28;10.40;99.90
5009;DHT22;2523;51.058;6.922;2023-03-20T18:24:53;10.40;99.90
5009;DHT22;2523;51.058;6.922;2023-03-20T18:27:19;10.40;99.90
5009;DHT22;2523;51.058;6.922;2023-03-20T18:29:44;10.40;99.90
5009;DHT22;2523;51.058;6.922;2023-03-20T18:32:10;10.40;99.90
5009;DHT22;2523;51.058;6.922;2023-03-20T18:34:35;10.40;99.90
5009;DHT22;2523;51.058;6.922;2023-03-20T18:37:01;10.40;99.90
5009;DHT22;2523;51.058;6.922;2023-03-20T18:39:28;10.40;99.90